sensor_id;sensor_type;location;lat;lon;timestamp;P1;durP1;ratioP1;P2;durP2;ratioP2
11681;SDS011;5897;42.640;23.310;2023-01-16T00:01:41;20.00;;;14.00;;
11681;SDS011;5897;42.640;23.310;2023-01-16T00:04:08;20.03;;;14.73;;
11681;SDS011;5897;42.640;23.310;2023-01-16T00:06:35;20.20;;;13.43;;
11681;SDS011;5897;42.640;23.310;2023-01-16T00:09:02;22.23;;;14.70;;
11681;SDS011;5897;42.640;23.310;2023-01-16T00:11:29;19.43;;;14.53;;
11681;SDS011;5897;42.640;23.310;2023-01-16T00:13:57;21.13;;;14.20;;
11681;SDS011;5897;42.640;23.310;2023-01-16T00:16:25;21.77;;;14.30;;
11681;SDS011;5897;42.640;23.310;2023-01-16T00:18:52;22.13;;;14.33;;
11681;SDS011;5897;42.640;23.310;2023-01-16T00:21:19;20.20;;;13.53;;
11681;SDS011;5897;42.640;23.310;2023-01-16T00:23:46;18.20;;;13.13;;
11681;SDS011;5897;42.640;23.310;2023-01-16T00:26:13;20.67;;;14.23;;
11681;SDS011;5897;42.640;23.310;2023-01-16T00:28:40;20.13;;;13.13;;
11681;SDS011;5897;42.640;23.310;2023-01-16T00:31:08;16.27;;;12.63;;
11681;SDS011;5897;42.640;23.310;2023-01-16T00:33:36;17.53;;;12.30;;
11681;SDS011;5897;42.640;23.310;2023-01-16T00:36:03;18.07;;;13.10;;
11681;SDS011;5897;42.640;23.310;2023-01-16T00:38:30;18.03;;;12.50;;
11681;SDS011;5897;42.640;23.310;2023-01-16T00:40:57;17.50;;;12.97;;
11681;SDS011;5897;42.640;23.310;2023-01-16T00:43:24;18.27;;;13.10;;
11681;SDS011;5897;42.640;23.310;2023-01-16T00:45:51;18.43;;;13.90;;
11681;SDS011;5897;42.640;23.310;2023-01-16T00:48:19;19.10;;;14.07;;
11681;SDS011;5897;42.640;23.310;2023-01-16T00:50:46;17.03;;;12.63;;
11681;SDS011;5897;42.640;23.310;2023-01-16T00:53:13;18.13;;;13.73;;
11681;SDS011;5897;42.640;23.310;2023-01-16T00:55:39;21.77;;;14.53;;
11681;SDS011;5897;42.640;23.310;2023-01-16T00:58:07;20.13;;;13.10;;
11681;SDS011;5897;42.640;23.310;2023-01-16T01:00:34;18.07;;;13.57;;
11681;SDS011;5897;42.640;23.310;2023-01-16T01:03:01;19.40;;;13.97;;
11681;SDS011;5897;42.640;23.310;2023-01-16T01:05:30;20.87;;;14.80;;
11681;SDS011;5897;42.640;23.310;2023-01-16T01:08:00;21.57;;;14.97;;
11681;SDS011;5897;42.640;23.310;2023-01-16T01:10:27;20.87;;;15.20;;
11681;SDS011;5897;42.640;23.310;2023-01-16T01:12:54;20.57;;;14.93;;
11681;SDS011;5897;42.640;23.310;2023-01-16T01:15:21;21.90;;;15.80;;
11681;SDS011;5897;42.640;23.310;2023-01-16T01:17:48;21.70;;;15.53;;
11681;SDS011;5897;42.640;23.310;2023-01-16T01:20:15;20.52;;;15.43;;
11681;SDS011;5897;42.640;23.310;2023-01-16T01:22:44;22.37;;;16.13;;
11681;SDS011;5897;42.640;23.310;2023-01-16T01:25:11;20.20;;;14.43;;
11681;SDS011;5897;42.640;23.310;2023-01-16T01:27:38;27.00;;;15.93;;
11681;SDS011;5897;42.640;23.310;2023-01-16T01:30:05;111.70;;;17.17;;
11681;SDS011;5897;42.640;23.310;2023-01-16T01:32:33;98.43;;;16.17;;
11681;SDS011;5897;42.640;23.310;2023-01-16T01:35:02;40.30;;;17.40;;
11681;SDS011;5897;42.640;23.310;2023-01-16T01:37:29;76.13;;;16.03;;
11681;SDS011;5897;42.640;23.310;2023-01-16T01:39:57;32.03;;;16.27;;
11681;SDS011;5897;42.640;23.310;2023-01-16T01:42:25;26.20;;;16.30;;
11681;SDS011;5897;42.640;23.310;2023-01-16T01:45:16;22.53;;;15.70;;
11681;SDS011;5897;42.640;23.310;2023-01-16T01:47:47;26.13;;;15.93;;
11681;SDS011;5897;42.640;23.310;2023-01-16T01:50:27;19.83;;;15.07;;
11681;SDS011;5897;42.640;23.310;2023-01-16T01:53:01;21.93;;;16.07;;
11681;SDS011;5897;42.640;23.310;2023-01-16T01:55:34;23.60;;;17.33;;
11681;SDS011;5897;42.640;23.310;2023-01-16T01:58:03;20.73;;;15.83;;
11681;SDS011;5897;42.640;23.310;2023-01-16T02:00:30;22.37;;;15.33;;
11681;SDS011;5897;42.640;23.310;2023-01-16T02:02:59;19.27;;;14.57;;
11681;SDS011;5897;42.640;23.310;2023-01-16T02:05:31;19.73;;;14.75;;
11681;SDS011;5897;42.640;23.310;2023-01-16T02:08:01;21.67;;;14.93;;
11681;SDS011;5897;42.640;23.310;2023-01-16T02:10:31;20.63;;;14.93;;
11681;SDS011;5897;42.640;23.310;2023-01-16T02:13:03;21.73;;;14.83;;
11681;SDS011;5897;42.640;23.310;2023-01-16T02:15:30;20.57;;;14.73;;
11681;SDS011;5897;42.640;23.310;2023-01-16T02:17:57;19.63;;;14.80;;
11681;SDS011;5897;42.640;23.310;2023-01-16T02:20:45;17.27;;;12.63;;
11681;SDS011;5897;42.640;23.310;2023-01-16T02:23:35;17.97;;;13.33;;
11681;SDS011;5897;42.640;23.310;2023-01-16T02:26:30;22.73;;;14.60;;
11681;SDS011;5897;42.640;23.310;2023-01-16T02:32:31;21.17;;;14.40;;
11681;SDS011;5897;42.640;23.310;2023-01-16T02:35:11;22.07;;;14.93;;
11681;SDS011;5897;42.640;23.310;2023-01-16T02:37:53;20.83;;;14.50;;
11681;SDS011;5897;42.640;23.310;2023-01-16T02:40:27;22.80;;;14.50;;
11681;SDS011;5897;42.640;23.310;2023-01-16T02:43:07;22.87;;;14.93;;
11681;SDS011;5897;42.640;23.310;2023-01-16T02:45:42;19.87;;;13.40;;
11681;SDS011;5897;42.640;23.310;2023-01-16T02:48:18;21.43;;;13.97;;
11681;SDS011;5897;42.640;23.310;2023-01-16T02:50:55;19.93;;;12.83;;
11681;SDS011;5897;42.640;23.310;2023-01-16T02:53:29;21.23;;;13.53;;
11681;SDS011;5897;42.640;23.310;2023-01-16T02:56:02;19.17;;;13.03;;
11681;SDS011;5897;42.640;23.310;2023-01-16T02:58:34;18.90;;;13.13;;
11681;SDS011;5897;42.640;23.310;2023-01-16T03:01:04;19.80;;;13.70;;
11681;SDS011;5897;42.640;23.310;2023-01-16T03:03:45;16.73;;;12.30;;
11681;SDS011;5897;42.640;23.310;2023-01-16T03:06:27;27.00;;;17.20;;
11681;SDS011;5897;42.640;23.310;2023-01-16T03:09:15;21.53;;;14.23;;
11681;SDS011;5897;42.640;23.310;2023-01-16T03:11:54;21.27;;;14.10;;
11681;SDS011;5897;42.640;23.310;2023-01-16T03:14:35;19.20;;;13.30;;
11681;SDS011;5897;42.640;23.310;2023-01-16T03:17:07;24.33;;;14.97;;
11681;SDS011;5897;42.640;23.310;2023-01-16T03:19:46;23.97;;;16.10;;
11681;SDS011;5897;42.640;23.310;2023-01-16T03:22:33;27.13;;;17.57;;
11681;SDS011;5897;42.640;23.310;2023-01-16T03:25:10;20.70;;;14.60;;
11681;SDS011;5897;42.640;23.310;2023-01-16T03:27:46;21.23;;;14.90;;
11681;SDS011;5897;42.640;23.310;2023-01-16T03:30:22;20.00;;;13.33;;
11681;SDS011;5897;42.640;23.310;2023-01-16T03:32:56;19.43;;;13.37;;
11681;SDS011;5897;42.640;23.310;2023-01-16T03:35:29;19.37;;;13.53;;
11681;SDS011;5897;42.640;23.310;2023-01-16T03:38:00;20.73;;;14.63;;
11681;SDS011;5897;42.640;23.310;2023-01-16T03:40:31;22.90;;;15.07;;
11681;SDS011;5897;42.640;23.310;2023-01-16T03:43:03;19.80;;;13.97;;
11681;SDS011;5897;42.640;23.310;2023-01-16T03:45:36;20.50;;;13.80;;
11681;SDS011;5897;42.640;23.310;2023-01-16T03:48:09;21.23;;;13.90;;
11681;SDS011;5897;42.640;23.310;2023-01-16T03:50:42;34.27;;;23.80;;
11681;SDS011;5897;42.640;23.310;2023-01-16T03:53:13;25.17;;;16.53;;
11681;SDS011;5897;42.640;23.310;2023-01-16T03:55:44;24.93;;;15.90;;
11681;SDS011;5897;42.640;23.310;2023-01-16T03:58:19;24.27;;;15.97;;
11681;SDS011;5897;42.640;23.310;2023-01-16T04:00:51;25.90;;;16.37;;
11681;SDS011;5897;42.640;23.310;2023-01-16T04:03:26;32.47;;;19.47;;
11681;SDS011;5897;42.640;23.310;2023-01-16T04:05:59;31.27;;;18.60;;
11681;SDS011;5897;42.640;23.310;2023-01-16T04:08:34;33.43;;;19.57;;
11681;SDS011;5897;42.640;23.310;2023-01-16T04:11:04;25.83;;;16.70;;
11681;SDS011;5897;42.640;23.310;2023-01-16T04:13:33;26.73;;;16.87;;
11681;SDS011;5897;42.640;23.310;2023-01-16T04:16:02;26.20;;;16.43;;
11681;SDS011;5897;42.640;23.310;2023-01-16T04:18:33;27.17;;;17.53;;
11681;SDS011;5897;42.640;23.310;2023-01-16T04:21:04;24.40;;;17.20;;
11681;SDS011;5897;42.640;23.310;2023-01-16T04:23:33;32.70;;;18.83;;
11681;SDS011;5897;42.640;23.310;2023-01-16T04:26:00;26.03;;;17.93;;
11681;SDS011;5897;42.640;23.310;2023-01-16T04:28:27;31.20;;;18.53;;
11681;SDS011;5897;42.640;23.310;2023-01-16T04:30:54;49.20;;;16.73;;
11681;SDS011;5897;42.640;23.310;2023-01-16T04:33:20;78.30;;;14.70;;
11681;SDS011;5897;42.640;23.310;2023-01-16T04:35:47;34.40;;;12.63;;
11681;SDS011;5897;42.640;23.310;2023-01-16T04:38:15;21.53;;;14.00;;
11681;SDS011;5897;42.640;23.310;2023-01-16T04:40:42;34.60;;;19.07;;
11681;SDS011;5897;42.640;23.310;2023-01-16T04:43:09;55.30;;;27.27;;
11681;SDS011;5897;42.640;23.310;2023-01-16T04:45:35;45.57;;;24.37;;
11681;SDS011;5897;42.640;23.310;2023-01-16T04:48:04;41.07;;;22.73;;
11681;SDS011;5897;42.640;23.310;2023-01-16T04:50:31;35.67;;;20.33;;
11681;SDS011;5897;42.640;23.310;2023-01-16T04:52:58;53.43;;;26.10;;
11681;SDS011;5897;42.640;23.310;2023-01-16T04:55:26;36.17;;;20.57;;
11681;SDS011;5897;42.640;23.310;2023-01-16T04:57:53;31.87;;;19.20;;
11681;SDS011;5897;42.640;23.310;2023-01-16T05:00:20;33.83;;;19.73;;
11681;SDS011;5897;42.640;23.310;2023-01-16T05:02:47;36.10;;;20.83;;
11681;SDS011;5897;42.640;23.310;2023-01-16T05:05:14;32.50;;;20.00;;
11681;SDS011;5897;42.640;23.310;2023-01-16T05:07:41;25.30;;;16.73;;
11681;SDS011;5897;42.640;23.310;2023-01-16T05:10:08;25.27;;;17.03;;
11681;SDS011;5897;42.640;23.310;2023-01-16T05:12:37;30.70;;;18.43;;
11681;SDS011;5897;42.640;23.310;2023-01-16T05:15:04;21.87;;;15.00;;
11681;SDS011;5897;42.640;23.310;2023-01-16T05:17:31;21.63;;;14.53;;
11681;SDS011;5897;42.640;23.310;2023-01-16T05:19:58;23.10;;;16.80;;
11681;SDS011;5897;42.640;23.310;2023-01-16T05:22:25;23.63;;;17.00;;
11681;SDS011;5897;42.640;23.310;2023-01-16T05:24:52;29.77;;;20.73;;
11681;SDS011;5897;42.640;23.310;2023-01-16T05:27:19;29.20;;;19.17;;
11681;SDS011;5897;42.640;23.310;2023-01-16T05:29:47;28.00;;;19.17;;
11681;SDS011;5897;42.640;23.310;2023-01-16T05:32:14;30.63;;;20.50;;
11681;SDS011;5897;42.640;23.310;2023-01-16T05:34:40;25.90;;;18.47;;
11681;SDS011;5897;42.640;23.310;2023-01-16T05:37:07;25.60;;;17.37;;
11681;SDS011;5897;42.640;23.310;2023-01-16T05:39:34;23.73;;;17.90;;
11681;SDS011;5897;42.640;23.310;2023-01-16T05:42:00;26.07;;;17.93;;
11681;SDS011;5897;42.640;23.310;2023-01-16T05:44:27;25.83;;;16.30;;
11681;SDS011;5897;42.640;23.310;2023-01-16T05:46:55;19.77;;;13.40;;
11681;SDS011;5897;42.640;23.310;2023-01-16T05:49:22;17.43;;;12.47;;
11681;SDS011;5897;42.640;23.310;2023-01-16T05:51:49;20.63;;;12.47;;
11681;SDS011;5897;42.640;23.310;2023-01-16T05:54:15;18.30;;;12.93;;
11681;SDS011;5897;42.640;23.310;2023-01-16T05:56:42;16.20;;;12.17;;
11681;SDS011;5897;42.640;23.310;2023-01-16T05:59:09;17.10;;;12.33;;
11681;SDS011;5897;42.640;23.310;2023-01-16T06:01:36;16.10;;;11.80;;
11681;SDS011;5897;42.640;23.310;2023-01-16T06:04:04;19.00;;;12.87;;
11681;SDS011;5897;42.640;23.310;2023-01-16T06:06:31;25.80;;;19.93;;
11681;SDS011;5897;42.640;23.310;2023-01-16T06:08:57;29.47;;;20.53;;
11681;SDS011;5897;42.640;23.310;2023-01-16T06:11:24;26.77;;;20.40;;
11681;SDS011;5897;42.640;23.310;2023-01-16T06:13:51;29.63;;;21.33;;
11681;SDS011;5897;42.640;23.310;2023-01-16T06:16:18;31.70;;;22.13;;
11681;SDS011;5897;42.640;23.310;2023-01-16T06:18:47;33.47;;;22.50;;
11681;SDS011;5897;42.640;23.310;2023-01-16T06:21:15;33.97;;;22.07;;
11681;SDS011;5897;42.640;23.310;2023-01-16T06:23:44;39.43;;;24.77;;
11681;SDS011;5897;42.640;23.310;2023-01-16T06:26:11;34.23;;;22.10;;
11681;SDS011;5897;42.640;23.310;2023-01-16T06:28:38;32.73;;;21.57;;
11681;SDS011;5897;42.640;23.310;2023-01-16T06:31:06;37.23;;;23.00;;
11681;SDS011;5897;42.640;23.310;2023-01-16T06:33:33;40.37;;;25.23;;
11681;SDS011;5897;42.640;23.310;2023-01-16T06:36:00;34.43;;;22.93;;
11681;SDS011;5897;42.640;23.310;2023-01-16T06:38:28;35.57;;;23.50;;
11681;SDS011;5897;42.640;23.310;2023-01-16T06:40:55;33.10;;;22.97;;
11681;SDS011;5897;42.640;23.310;2023-01-16T06:43:22;30.67;;;21.10;;
11681;SDS011;5897;42.640;23.310;2023-01-16T06:45:49;28.27;;;19.50;;
11681;SDS011;5897;42.640;23.310;2023-01-16T06:48:16;25.93;;;17.70;;
11681;SDS011;5897;42.640;23.310;2023-01-16T06:50:43;26.83;;;18.00;;
11681;SDS011;5897;42.640;23.310;2023-01-16T06:53:10;107.30;;;19.13;;
11681;SDS011;5897;42.640;23.310;2023-01-16T06:55:38;35.60;;;18.47;;
11681;SDS011;5897;42.640;23.310;2023-01-16T06:58:06;66.13;;;19.33;;
11681;SDS011;5897;42.640;23.310;2023-01-16T07:00:34;27.13;;;16.10;;
11681;SDS011;5897;42.640;23.310;2023-01-16T07:03:01;61.47;;;18.37;;
11681;SDS011;5897;42.640;23.310;2023-01-16T07:05:30;48.47;;;20.67;;
11681;SDS011;5897;42.640;23.310;2023-01-16T07:07:57;117.97;;;19.53;;
11681;SDS011;5897;42.640;23.310;2023-01-16T07:10:24;37.67;;;20.00;;
11681;SDS011;5897;42.640;23.310;2023-01-16T07:12:53;89.70;;;22.33;;
11681;SDS011;5897;42.640;23.310;2023-01-16T07:15:20;91.87;;;20.27;;
11681;SDS011;5897;42.640;23.310;2023-01-16T07:18:05;41.13;;;21.93;;
11681;SDS011;5897;42.640;23.310;2023-01-16T07:20:53;38.50;;;21.10;;
11681;SDS011;5897;42.640;23.310;2023-01-16T07:23:40;58.13;;;19.70;;
11681;SDS011;5897;42.640;23.310;2023-01-16T07:26:10;33.93;;;18.83;;
11681;SDS011;5897;42.640;23.310;2023-01-16T07:28:40;48.70;;;20.30;;
11681;SDS011;5897;42.640;23.310;2023-01-16T07:31:07;35.70;;;19.90;;
11681;SDS011;5897;42.640;23.310;2023-01-16T07:33:34;81.05;;;21.48;;
11681;SDS011;5897;42.640;23.310;2023-01-16T07:36:01;33.93;;;19.57;;
11681;SDS011;5897;42.640;23.310;2023-01-16T07:38:28;157.57;;;21.00;;
11681;SDS011;5897;42.640;23.310;2023-01-16T07:40:54;82.83;;;21.23;;
11681;SDS011;5897;42.640;23.310;2023-01-16T07:43:21;34.22;;;21.00;;
11681;SDS011;5897;42.640;23.310;2023-01-16T07:45:49;52.80;;;20.83;;
11681;SDS011;5897;42.640;23.310;2023-01-16T07:48:18;62.57;;;21.40;;
11681;SDS011;5897;42.640;23.310;2023-01-16T07:50:48;38.57;;;20.53;;
11681;SDS011;5897;42.640;23.310;2023-01-16T07:53:17;41.17;;;21.33;;
11681;SDS011;5897;42.640;23.310;2023-01-16T07:55:46;38.77;;;20.87;;
11681;SDS011;5897;42.640;23.310;2023-01-16T07:58:14;39.67;;;21.90;;
11681;SDS011;5897;42.640;23.310;2023-01-16T08:00:41;38.10;;;21.90;;
11681;SDS011;5897;42.640;23.310;2023-01-16T08:03:09;37.17;;;20.70;;
11681;SDS011;5897;42.640;23.310;2023-01-16T08:05:37;35.38;;;21.80;;
11681;SDS011;5897;42.640;23.310;2023-01-16T08:08:04;45.00;;;28.38;;
11681;SDS011;5897;42.640;23.310;2023-01-16T08:10:31;51.17;;;32.13;;
11681;SDS011;5897;42.640;23.310;2023-01-16T08:12:57;52.33;;;33.95;;
11681;SDS011;5897;42.640;23.310;2023-01-16T08:15:24;44.92;;;28.83;;
11681;SDS011;5897;42.640;23.310;2023-01-16T08:17:51;40.75;;;26.02;;
11681;SDS011;5897;42.640;23.310;2023-01-16T08:20:19;40.17;;;24.42;;
11681;SDS011;5897;42.640;23.310;2023-01-16T08:22:48;42.78;;;24.85;;
11681;SDS011;5897;42.640;23.310;2023-01-16T08:25:16;40.00;;;25.23;;
11681;SDS011;5897;42.640;23.310;2023-01-16T08:27:44;42.78;;;24.55;;
11681;SDS011;5897;42.640;23.310;2023-01-16T08:30:12;44.95;;;26.20;;
11681;SDS011;5897;42.640;23.310;2023-01-16T08:32:40;47.00;;;26.33;;
11681;SDS011;5897;42.640;23.310;2023-01-16T08:35:07;48.78;;;28.02;;
11681;SDS011;5897;42.640;23.310;2023-01-16T08:37:36;45.15;;;26.52;;
11681;SDS011;5897;42.640;23.310;2023-01-16T08:40:04;46.88;;;27.38;;
11681;SDS011;5897;42.640;23.310;2023-01-16T08:42:31;45.17;;;28.35;;
11681;SDS011;5897;42.640;23.310;2023-01-16T08:45:16;45.83;;;26.42;;
11681;SDS011;5897;42.640;23.310;2023-01-16T08:48:00;54.10;;;33.83;;
11681;SDS011;5897;42.640;23.310;2023-01-16T08:50:45;50.17;;;32.22;;
11681;SDS011;5897;42.640;23.310;2023-01-16T08:53:32;41.38;;;25.98;;
11681;SDS011;5897;42.640;23.310;2023-01-16T08:55:59;42.08;;;27.83;;
11681;SDS011;5897;42.640;23.310;2023-01-16T08:58:26;44.40;;;27.85;;
11681;SDS011;5897;42.640;23.310;2023-01-16T09:00:53;40.10;;;25.70;;
11681;SDS011;5897;42.640;23.310;2023-01-16T09:03:19;41.75;;;26.42;;
11681;SDS011;5897;42.640;23.310;2023-01-16T09:05:46;40.95;;;27.13;;
11681;SDS011;5897;42.640;23.310;2023-01-16T09:08:13;40.92;;;27.33;;
11681;SDS011;5897;42.640;23.310;2023-01-16T09:10:41;49.00;;;29.00;;
11681;SDS011;5897;42.640;23.310;2023-01-16T09:13:28;49.75;;;29.63;;
11681;SDS011;5897;42.640;23.310;2023-01-16T09:16:13;47.17;;;28.70;;
11681;SDS011;5897;42.640;23.310;2023-01-16T09:18:39;43.97;;;27.33;;
11681;SDS011;5897;42.640;23.310;2023-01-16T09:21:06;43.08;;;27.88;;
11681;SDS011;5897;42.640;23.310;2023-01-16T09:23:33;46.15;;;28.88;;
11681;SDS011;5897;42.640;23.310;2023-01-16T09:26:01;44.00;;;28.35;;
11681;SDS011;5897;42.640;23.310;2023-01-16T09:28:28;43.35;;;29.90;;
11681;SDS011;5897;42.640;23.310;2023-01-16T09:30:55;43.15;;;28.35;;
11681;SDS011;5897;42.640;23.310;2023-01-16T09:33:22;43.97;;;27.90;;
11681;SDS011;5897;42.640;23.310;2023-01-16T09:35:48;37.13;;;24.80;;
11681;SDS011;5897;42.640;23.310;2023-01-16T09:38:15;36.55;;;23.88;;
11681;SDS011;5897;42.640;23.310;2023-01-16T09:40:43;36.38;;;23.13;;
11681;SDS011;5897;42.640;23.310;2023-01-16T09:43:20;36.30;;;24.02;;
11681;SDS011;5897;42.640;23.310;2023-01-16T09:46:04;36.03;;;23.98;;
11681;SDS011;5897;42.640;23.310;2023-01-16T09:48:36;34.58;;;22.90;;
11681;SDS011;5897;42.640;23.310;2023-01-16T09:51:11;32.25;;;20.85;;
11681;SDS011;5897;42.640;23.310;2023-01-16T09:53:41;31.98;;;20.58;;
11681;SDS011;5897;42.640;23.310;2023-01-16T09:56:30;25.27;;;17.02;;
11681;SDS011;5897;42.640;23.310;2023-01-16T09:59:22;28.90;;;18.58;;
11681;SDS011;5897;42.640;23.310;2023-01-16T10:01:55;28.33;;;18.58;;
11681;SDS011;5897;42.640;23.310;2023-01-16T10:04:26;26.23;;;18.80;;
11681;SDS011;5897;42.640;23.310;2023-01-16T10:07:02;22.67;;;16.10;;
11681;SDS011;5897;42.640;23.310;2023-01-16T10:09:47;23.35;;;15.75;;
11681;SDS011;5897;42.640;23.310;2023-01-16T10:12:22;23.05;;;16.23;;
11681;SDS011;5897;42.640;23.310;2023-01-16T10:15:01;26.52;;;17.63;;
11681;SDS011;5897;42.640;23.310;2023-01-16T10:17:39;24.45;;;17.55;;
11681;SDS011;5897;42.640;23.310;2023-01-16T10:20:30;25.30;;;17.60;;
11681;SDS011;5897;42.640;23.310;2023-01-16T10:23:11;24.15;;;16.55;;
11681;SDS011;5897;42.640;23.310;2023-01-16T10:25:50;23.05;;;15.98;;
11681;SDS011;5897;42.640;23.310;2023-01-16T10:28:29;21.33;;;15.82;;
11681;SDS011;5897;42.640;23.310;2023-01-16T10:31:10;25.05;;;16.77;;
11681;SDS011;5897;42.640;23.310;2023-01-16T10:33:45;20.60;;;14.27;;
11681;SDS011;5897;42.640;23.310;2023-01-16T10:36:21;16.55;;;11.90;;
11681;SDS011;5897;42.640;23.310;2023-01-16T10:38:52;14.85;;;10.73;;
11681;SDS011;5897;42.640;23.310;2023-01-16T10:41:22;12.90;;;9.48;;
11681;SDS011;5897;42.640;23.310;2023-01-16T10:44:13;13.85;;;10.50;;
11681;SDS011;5897;42.640;23.310;2023-01-16T10:47:16;11.85;;;8.45;;
11681;SDS011;5897;42.640;23.310;2023-01-16T10:50:02;9.57;;;7.63;;
11681;SDS011;5897;42.640;23.310;2023-01-16T10:52:29;12.63;;;9.43;;
11681;SDS011;5897;42.640;23.310;2023-01-16T10:54:57;16.58;;;10.95;;
11681;SDS011;5897;42.640;23.310;2023-01-16T10:57:26;18.08;;;12.82;;
11681;SDS011;5897;42.640;23.310;2023-01-16T11:00:03;18.08;;;13.88;;
11681;SDS011;5897;42.640;23.310;2023-01-16T11:02:37;18.20;;;13.02;;
11681;SDS011;5897;42.640;23.310;2023-01-16T11:05:22;19.60;;;12.93;;
11681;SDS011;5897;42.640;23.310;2023-01-16T11:07:54;21.75;;;15.40;;
11681;SDS011;5897;42.640;23.310;2023-01-16T11:10:22;17.60;;;13.60;;
11681;SDS011;5897;42.640;23.310;2023-01-16T11:12:49;17.58;;;11.52;;
11681;SDS011;5897;42.640;23.310;2023-01-16T11:15:35;20.85;;;12.82;;
11681;SDS011;5897;42.640;23.310;2023-01-16T11:18:22;19.42;;;12.18;;
11681;SDS011;5897;42.640;23.310;2023-01-16T11:21:00;18.70;;;13.32;;
11681;SDS011;5897;42.640;23.310;2023-01-16T11:23:39;17.08;;;12.05;;
11681;SDS011;5897;42.640;23.310;2023-01-16T11:26:08;16.67;;;11.45;;
11681;SDS011;5897;42.640;23.310;2023-01-16T11:28:36;19.90;;;12.43;;
11681;SDS011;5897;42.640;23.310;2023-01-16T11:31:07;17.33;;;12.27;;
11681;SDS011;5897;42.640;23.310;2023-01-16T11:33:40;16.63;;;11.70;;
11681;SDS011;5897;42.640;23.310;2023-01-16T11:36:13;14.15;;;10.65;;
11681;SDS011;5897;42.640;23.310;2023-01-16T11:38:44;14.75;;;10.40;;
11681;SDS011;5897;42.640;23.310;2023-01-16T11:41:12;16.23;;;10.90;;
11681;SDS011;5897;42.640;23.310;2023-01-16T11:43:44;15.73;;;11.63;;
11681;SDS011;5897;42.640;23.310;2023-01-16T11:46:33;14.20;;;10.90;;
11681;SDS011;5897;42.640;23.310;2023-01-16T11:49:11;17.33;;;11.70;;
11681;SDS011;5897;42.640;23.310;2023-01-16T11:51:42;15.13;;;11.30;;
11681;SDS011;5897;42.640;23.310;2023-01-16T11:54:11;20.75;;;13.25;;
11681;SDS011;5897;42.640;23.310;2023-01-16T11:56:49;17.40;;;12.23;;
11681;SDS011;5897;42.640;23.310;2023-01-16T12:02:19;22.90;;;15.93;;
11681;SDS011;5897;42.640;23.310;2023-01-16T12:05:10;22.42;;;16.33;;
11681;SDS011;5897;42.640;23.310;2023-01-16T12:08:04;24.50;;;17.10;;
11681;SDS011;5897;42.640;23.310;2023-01-16T12:10:47;26.30;;;17.10;;
11681;SDS011;5897;42.640;23.310;2023-01-16T12:13:22;24.52;;;17.38;;
11681;SDS011;5897;42.640;23.310;2023-01-16T12:16:13;22.70;;;16.30;;
11681;SDS011;5897;42.640;23.310;2023-01-16T12:18:47;20.45;;;14.68;;
11681;SDS011;5897;42.640;23.310;2023-01-16T12:21:29;20.08;;;13.18;;
11681;SDS011;5897;42.640;23.310;2023-01-16T12:27:02;23.40;;;15.10;;
11681;SDS011;5897;42.640;23.310;2023-01-16T12:29:40;23.92;;;15.55;;
11681;SDS011;5897;42.640;23.310;2023-01-16T12:32:32;19.33;;;15.57;;
11681;SDS011;5897;42.640;23.310;2023-01-16T12:35:15;21.42;;;15.43;;
11681;SDS011;5897;42.640;23.310;2023-01-16T12:38:07;24.75;;;15.20;;
11681;SDS011;5897;42.640;23.310;2023-01-16T12:40:42;21.70;;;15.35;;
11681;SDS011;5897;42.640;23.310;2023-01-16T12:43:49;20.17;;;15.43;;
11681;SDS011;5897;42.640;23.310;2023-01-16T12:46:27;25.35;;;17.40;;
11681;SDS011;5897;42.640;23.310;2023-01-16T12:49:15;24.58;;;17.67;;
11681;SDS011;5897;42.640;23.310;2023-01-16T12:51:58;30.85;;;19.98;;
11681;SDS011;5897;42.640;23.310;2023-01-16T12:57:29;29.05;;;20.10;;
11681;SDS011;5897;42.640;23.310;2023-01-16T13:00:16;27.40;;;18.95;;
11681;SDS011;5897;42.640;23.310;2023-01-16T13:02:47;24.73;;;17.58;;
11681;SDS011;5897;42.640;23.310;2023-01-16T13:05:20;25.13;;;17.40;;
11681;SDS011;5897;42.640;23.310;2023-01-16T13:07:51;31.98;;;18.95;;
11681;SDS011;5897;42.640;23.310;2023-01-16T13:10:22;25.48;;;17.23;;
11681;SDS011;5897;42.640;23.310;2023-01-16T13:13:13;28.48;;;17.73;;
11681;SDS011;5897;42.640;23.310;2023-01-16T13:15:49;24.10;;;18.73;;
11681;SDS011;5897;42.640;23.310;2023-01-16T13:18:23;25.95;;;17.77;;
11681;SDS011;5897;42.640;23.310;2023-01-16T13:20:54;29.20;;;19.35;;
11681;SDS011;5897;42.640;23.310;2023-01-16T13:23:23;31.52;;;18.95;;
11681;SDS011;5897;42.640;23.310;2023-01-16T13:25:55;29.67;;;22.55;;
11681;SDS011;5897;42.640;23.310;2023-01-16T13:28:29;33.78;;;19.90;;
11681;SDS011;5897;42.640;23.310;2023-01-16T13:31:03;28.83;;;19.27;;
11681;SDS011;5897;42.640;23.310;2023-01-16T13:33:36;31.40;;;19.20;;
11681;SDS011;5897;42.640;23.310;2023-01-16T13:36:10;29.27;;;17.95;;
11681;SDS011;5897;42.640;23.310;2023-01-16T13:38:56;26.42;;;17.65;;
11681;SDS011;5897;42.640;23.310;2023-01-16T13:41:33;23.20;;;15.80;;
11681;SDS011;5897;42.640;23.310;2023-01-16T13:44:03;23.73;;;16.15;;
11681;SDS011;5897;42.640;23.310;2023-01-16T13:46:50;22.52;;;15.45;;
11681;SDS011;5897;42.640;23.310;2023-01-16T13:49:19;25.55;;;16.75;;
11681;SDS011;5897;42.640;23.310;2023-01-16T13:51:49;26.02;;;16.52;;
11681;SDS011;5897;42.640;23.310;2023-01-16T13:54:18;28.27;;;16.35;;
11681;SDS011;5897;42.640;23.310;2023-01-16T13:56:56;24.15;;;15.52;;
11681;SDS011;5897;42.640;23.310;2023-01-16T13:59:32;23.15;;;15.32;;
11681;SDS011;5897;42.640;23.310;2023-01-16T14:02:17;28.90;;;19.13;;
11681;SDS011;5897;42.640;23.310;2023-01-16T14:07:48;26.02;;;16.42;;
11681;SDS011;5897;42.640;23.310;2023-01-16T14:10:38;28.10;;;16.90;;
11681;SDS011;5897;42.640;23.310;2023-01-16T14:13:13;23.50;;;16.55;;
11681;SDS011;5897;42.640;23.310;2023-01-16T14:15:47;22.63;;;16.63;;
11681;SDS011;5897;42.640;23.310;2023-01-16T14:18:37;23.63;;;15.23;;
11681;SDS011;5897;42.640;23.310;2023-01-16T14:21:11;22.20;;;14.73;;
11681;SDS011;5897;42.640;23.310;2023-01-16T14:23:43;24.33;;;15.57;;
11681;SDS011;5897;42.640;23.310;2023-01-16T14:26:30;21.98;;;14.70;;
11681;SDS011;5897;42.640;23.310;2023-01-16T14:29:05;20.60;;;15.15;;
11681;SDS011;5897;42.640;23.310;2023-01-16T14:31:41;22.77;;;14.88;;
11681;SDS011;5897;42.640;23.310;2023-01-16T14:34:14;21.20;;;14.68;;
11681;SDS011;5897;42.640;23.310;2023-01-16T14:36:43;26.67;;;16.27;;
11681;SDS011;5897;42.640;23.310;2023-01-16T14:41:56;25.30;;;15.63;;
11681;SDS011;5897;42.640;23.310;2023-01-16T14:45:04;20.58;;;15.65;;
11681;SDS011;5897;42.640;23.310;2023-01-16T14:48:11;22.45;;;15.15;;
11681;SDS011;5897;42.640;23.310;2023-01-16T14:50:59;17.92;;;14.18;;
11681;SDS011;5897;42.640;23.310;2023-01-16T14:53:51;19.35;;;14.75;;
11681;SDS011;5897;42.640;23.310;2023-01-16T14:56:39;19.80;;;14.32;;
11681;SDS011;5897;42.640;23.310;2023-01-16T14:59:07;20.73;;;15.02;;
11681;SDS011;5897;42.640;23.310;2023-01-16T15:01:47;22.52;;;14.45;;
11681;SDS011;5897;42.640;23.310;2023-01-16T15:04:37;22.83;;;15.10;;
11681;SDS011;5897;42.640;23.310;2023-01-16T15:07:12;25.50;;;15.60;;
11681;SDS011;5897;42.640;23.310;2023-01-16T15:09:42;21.95;;;15.65;;
11681;SDS011;5897;42.640;23.310;2023-01-16T15:12:11;22.45;;;15.60;;